Air Navigation Services of Czech Republic  
Last data update:  10.12.2019 13:20:26 UTC Česká verze
   METEO Page displayed:  10.12.2019 13:20:27 UTC  
help
METAR EDDB 101250Z 27008KT 9999 FEW018 06/01 Q1023 NOSIG=
METAR EDDC 101250Z 29008KT 240V310 9999 SCT017 05/01 Q1024 NOSIG=
METAR EDDE 101250Z 26010KT 9999 FEW020 04/M00 Q1025 NOSIG=
METAR EDDF 101250Z 18008KT 9999 FEW021 06/02 Q1026 NOSIG=
METAR EDDM 101250Z 29004KT 9999 FEW030 04/M01 Q1027 NOSIG=
METAR EDDN 101250Z 27005KT 9999 SCT020 04/M00 Q1027 NOSIG=
METAR EDDP 101250Z 25013KT 9999 FEW020 06/02 Q1024 NOSIG=
METAR EDDT 101250Z 26009KT 9999 FEW020 06/01 Q1023 NOSIG=
METAR EDQM 101250Z 25009KT 9999 OVC043 02/M01 Q1024=
METAR EPBY 101300Z 31010KT 270V330 9999 SCT030 04/M03 Q1019=
METAR EPGD 101300Z 31016KT 9999 SCT030 02/M02 Q1017=
METAR EPKK 101300Z 27009KT 240V300 9999 SCT040 03/M02 Q1020=
METAR EPKT 101300Z 30011KT 9999 SCT041 BKN047 03/M04 Q1020=
METAR EPLL 101300Z 28014KT 9999 -SHRA SCT007 BKN012CB 02/M00 Q1019=
METAR EPPO 101300Z 29010KT 9999 FEW027 05/M02 Q1021=
METAR EPRZ 101300Z 29012KT 9999 FEW023 BKN040 05/M01 Q1017=
METAR EPWA 101300Z 27009KT 230V300 9999 BKN023 04/00 Q1017 NOSIG=
METAR EPWR 101300Z 31012KT 9999 SCT030 04/M03 Q1022=
METAR LHBP 101300Z 33013KT 9999 FEW023 BKN120 08/03 Q1017 NOSIG=
METAR LHSM 101245Z AUTO 36022G35KT 9999 BKN043 07/M00 Q1021 NOSIG=
METAR LKBC 101300Z AUTO 26011KT 9999 FEW030 04/M02 Q1024=
METAR LKCV 101300Z 30012KT 9999 SCT030 05/M02 Q1023 NOSIG RMK BLU BLU=
METAR LKKB 101300Z 28010KT 9999 SCT041 05/M03 Q1024 NOSIG RMK BLU BLU=
METAR LKKU 101300Z 34013G24KT 9999 SCT041 06/M03 Q1022=
METAR LKKV 101300Z 26007KT 9999 SCT015 BKN017 BKN046 02/M01 Q1023 RMK REG QNH 1020=
METAR LKLN 101300Z AUTO 28006KT 230V360 9999 FEW046 SCT066 05/M00 Q1025=
METAR LKMT 101300Z 36008KT 320V020 9999 FEW047 05/M04 Q1021 NOSIG RMK REG QNH 1020=
METAR LKNA 101300Z 32015KT CAVOK 03/M05 Q1022 NOSIG RMK BLU BLU=
METAR LKPD 101300Z 29008KT 9999 SCT038 05/M03 Q1023 NOSIG RMK BLU BLU=
METAR LKPJ 101300Z AUTO 30015KT CAVOK ///// Q////=
METAR LKPR 101300Z 30010KT 9999 FEW036 05/M03 Q1024 NOSIG RMK REG QNH 1020=
METAR LKTB 101300Z 31016KT 9999 FEW042 05/M05 Q1022 NOSIG RMK REG QNH 1020=
METAR LKVO 101300Z 29011KT 9999 FEW034 06/M02 Q1024=
METAR LOWI 101250Z 07007KT 040V110 9999 FEW015 SCT060 04/M00 Q1026 R08/29//95 NOSIG=
METAR LOWL 101250Z 28012KT 9999 FEW021 BKN060 04/01 Q1026 NOSIG=
METAR LOWS 101250Z 24006KT 9999 FEW028 BKN060 03/M02 Q1027 NOSIG=
METAR LOWW 101250Z 31022G32KT 9999 FEW045 07/M03 Q1022 NOSIG=
METAR LZIB 101300Z 34017KT 9999 SCT045 07/M03 Q1022 NOSIG=
METAR LZKZ 101300Z 02013KT 9999 FEW028 SCT035 BKN075 06/02 Q1017 NOSIG=
METAR LZMC 101300Z 33016KT 9999 SCT042 06/M04 Q1023=
METAR LZPP 101300Z 33016KT 9999 SCT040 06/M03 Q1021=
METAR LZSL 101300Z 35018KT 9999 SCT043 06/M03 Q1018=
METAR LZTT 101300Z 22010KT 170V250 9999 FEW008 BKN030 02/M02 Q1016 NOSIG=
METAR LZZI 101300Z 35008KT 310V030 9999 SCT043 04/M04 Q1021=